sensor_id;sensor_type;location;lat;lon;timestamp;pressure;altitude;pressure_sealevel;temperature;humidity
46394;BME280;32099;53.588;10.176;2023-10-13T00:00:46;100853.91;;;12.74;96.43
46394;BME280;32099;53.588;10.176;2023-10-13T00:03:12;100848.28;;;12.75;96.04
46394;BME280;32099;53.588;10.176;2023-10-13T00:05:38;100856.47;;;12.75;96.13
46394;BME280;32099;53.588;10.176;2023-10-13T00:08:04;100851.63;;;12.77;96.38
46394;BME280;32099;53.588;10.176;2023-10-13T00:10:34;100853.75;;;12.75;96.62
46394;BME280;32099;53.588;10.176;2023-10-13T00:13:00;100841.28;;;12.73;95.91
46394;BME280;32099;53.588;10.176;2023-10-13T00:15:29;100840.06;;;12.75;97.94
46394;BME280;32099;53.588;10.176;2023-10-13T00:17:55;100842.59;;;12.77;97.13
46394;BME280;32099;53.588;10.176;2023-10-13T00:20:20;100835.63;;;12.74;97.67
46394;BME280;32099;53.588;10.176;2023-10-13T00:22:46;100839.19;;;12.75;96.92
46394;BME280;32099;53.588;10.176;2023-10-13T00:25:12;100830.81;;;12.76;97.58
46394;BME280;32099;53.588;10.176;2023-10-13T00:27:38;100831.25;;;12.80;97.48
46394;BME280;32099;53.588;10.176;2023-10-13T00:30:07;100829.19;;;12.82;97.24
46394;BME280;32099;53.588;10.176;2023-10-13T00:32:35;100823.88;;;12.80;98.24
46394;BME280;32099;53.588;10.176;2023-10-13T00:35:01;100826.63;;;12.80;98.21
46394;BME280;32099;53.588;10.176;2023-10-13T00:37:27;100828.13;;;12.83;98.60
46394;BME280;32099;53.588;10.176;2023-10-13T00:39:53;100819.06;;;12.83;97.88
46394;BME280;32099;53.588;10.176;2023-10-13T00:42:18;100822.25;;;12.86;99.03
46394;BME280;32099;53.588;10.176;2023-10-13T00:44:44;100819.13;;;12.89;98.32
46394;BME280;32099;53.588;10.176;2023-10-13T00:47:10;100819.13;;;12.89;99.72
46394;BME280;32099;53.588;10.176;2023-10-13T00:49:39;100807.31;;;12.89;98.27
46394;BME280;32099;53.588;10.176;2023-10-13T00:52:05;100803.16;;;12.93;99.14
46394;BME280;32099;53.588;10.176;2023-10-13T00:54:30;100805.91;;;12.93;99.93
46394;BME280;32099;53.588;10.176;2023-10-13T00:56:58;100802.94;;;12.94;98.85
46394;BME280;32099;53.588;10.176;2023-10-13T00:59:24;100800.69;;;12.98;99.12
46394;BME280;32099;53.588;10.176;2023-10-13T01:01:50;100802.84;;;13.03;99.92
46394;BME280;32099;53.588;10.176;2023-10-13T01:04:15;100742.16;;;12.71;98.85
46394;BME280;32099;53.588;10.176;2023-10-13T01:06:44;100791.06;;;13.09;99.71
46394;BME280;32099;53.588;10.176;2023-10-13T01:09:10;100785.41;;;13.10;99.18
46394;BME280;32099;53.588;10.176;2023-10-13T01:11:37;100787.94;;;13.12;99.60
46394;BME280;32099;53.588;10.176;2023-10-13T01:14:04;100780.78;;;13.11;100.00
46394;BME280;32099;53.588;10.176;2023-10-13T01:16:30;100772.56;;;13.11;100.00
46394;BME280;32099;53.588;10.176;2023-10-13T01:18:56;100776.78;;;13.14;100.00
46394;BME280;32099;53.588;10.176;2023-10-13T01:21:22;100773.88;;;13.15;99.93
46394;BME280;32099;53.588;10.176;2023-10-13T01:23:50;100764.19;;;13.19;100.00
46394;BME280;32099;53.588;10.176;2023-10-13T01:26:16;100756.84;;;13.20;100.00
46394;BME280;32099;53.588;10.176;2023-10-13T01:28:42;100766.75;;;13.21;100.00
46394;BME280;32099;53.588;10.176;2023-10-13T01:31:08;100759.38;;;13.21;100.00
46394;BME280;32099;53.588;10.176;2023-10-13T01:33:34;100746.31;;;13.23;100.00
46394;BME280;32099;53.588;10.176;2023-10-13T01:36:00;100747.63;;;13.27;100.00
46394;BME280;32099;53.588;10.176;2023-10-13T01:38:27;100745.50;;;13.30;100.00
46394;BME280;32099;53.588;10.176;2023-10-13T01:40:55;100748.25;;;13.30;100.00
46394;BME280;32099;53.588;10.176;2023-10-13T01:43:21;100737.94;;;13.32;100.00
46394;BME280;32099;53.588;10.176;2023-10-13T01:45:46;100730.38;;;13.34;100.00
46394;BME280;32099;53.588;10.176;2023-10-13T01:48:13;100728.28;;;13.36;100.00
46394;BME280;32099;53.588;10.176;2023-10-13T01:50:39;100726.19;;;13.38;100.00
46394;BME280;32099;53.588;10.176;2023-10-13T01:53:04;100720.31;;;13.41;100.00
46394;BME280;32099;53.588;10.176;2023-10-13T01:55:30;100713.41;;;13.45;100.00
46394;BME280;32099;53.588;10.176;2023-10-13T01:57:59;100707.53;;;13.48;100.00
46394;BME280;32099;53.588;10.176;2023-10-13T02:00:25;100701.63;;;13.45;100.00
46394;BME280;32099;53.588;10.176;2023-10-13T02:02:50;100708.56;;;13.47;100.00
46394;BME280;32099;53.588;10.176;2023-10-13T02:05:16;100703.09;;;13.47;100.00
46394;BME280;32099;53.588;10.176;2023-10-13T02:07:42;100695.72;;;13.48;100.00
46394;BME280;32099;53.588;10.176;2023-10-13T02:10:08;100688.13;;;13.50;100.00
46394;BME280;32099;53.588;10.176;2023-10-13T02:12:34;100676.78;;;13.53;100.00
46394;BME280;32099;53.588;10.176;2023-10-13T02:15:03;100679.13;;;13.56;100.00
46394;BME280;32099;53.588;10.176;2023-10-13T02:17:30;100675.94;;;13.59;100.00
46394;BME280;32099;53.588;10.176;2023-10-13T02:19:56;100676.59;;;13.61;100.00
46394;BME280;32099;53.588;10.176;2023-10-13T02:22:22;100658.88;;;13.64;100.00
46394;BME280;32099;53.588;10.176;2023-10-13T02:24:47;100665.03;;;13.66;100.00
46394;BME280;32099;53.588;10.176;2023-10-13T02:27:13;100660.19;;;13.68;100.00
46394;BME280;32099;53.588;10.176;2023-10-13T02:29:39;100652.59;;;13.70;100.00
46394;BME280;32099;53.588;10.176;2023-10-13T02:32:07;100651.34;;;13.72;100.00
46394;BME280;32099;53.588;10.176;2023-10-13T02:34:33;100656.81;;;13.72;100.00
46394;BME280;32099;53.588;10.176;2023-10-13T02:36:59;100645.88;;;13.72;100.00
46394;BME280;32099;53.588;10.176;2023-10-13T02:39:25;100647.56;;;13.73;100.00
46394;BME280;32099;53.588;10.176;2023-10-13T02:41:53;100648.84;;;13.78;100.00
46394;BME280;32099;53.588;10.176;2023-10-13T02:44:19;100641.44;;;13.78;100.00
46394;BME280;32099;53.588;10.176;2023-10-13T02:46:45;100635.78;;;13.80;100.00
46394;BME280;32099;53.588;10.176;2023-10-13T02:49:14;100629.22;;;13.81;100.00
46394;BME280;32099;53.588;10.176;2023-10-13T02:51:39;100629.22;;;13.81;100.00
46394;BME280;32099;53.588;10.176;2023-10-13T02:54:05;100613.63;;;13.81;100.00
46394;BME280;32099;53.588;10.176;2023-10-13T02:56:31;100620.81;;;13.82;100.00
46394;BME280;32099;53.588;10.176;2023-10-13T02:58:57;100616.81;;;13.85;100.00
46394;BME280;32099;53.588;10.176;2023-10-13T03:01:24;100613.22;;;13.84;100.00
46394;BME280;32099;53.588;10.176;2023-10-13T03:03:50;100614.91;;;13.85;100.00
46394;BME280;32099;53.588;10.176;2023-10-13T03:06:19;100611.72;;;13.82;100.00
46394;BME280;32099;53.588;10.176;2023-10-13T03:08:46;100609.63;;;13.84;100.00
46394;BME280;32099;53.588;10.176;2023-10-13T03:11:12;100597.63;;;13.85;100.00
46394;BME280;32099;53.588;10.176;2023-10-13T03:13:38;100593.59;;;13.87;100.00
46394;BME280;32099;53.588;10.176;2023-10-13T03:16:10;100588.13;;;13.87;100.00
46394;BME280;32099;53.588;10.176;2023-10-13T03:18:37;100589.00;;;13.88;100.00
46394;BME280;32099;53.588;10.176;2023-10-13T03:21:02;100580.34;;;13.91;100.00
46394;BME280;32099;53.588;10.176;2023-10-13T03:23:31;100567.91;;;13.95;100.00
46394;BME280;32099;53.588;10.176;2023-10-13T03:25:57;100572.09;;;13.98;100.00
46394;BME280;32099;53.588;10.176;2023-10-13T03:28:22;100561.13;;;13.98;100.00
46394;BME280;32099;53.588;10.176;2023-10-13T03:30:48;100560.94;;;13.99;100.00
46394;BME280;32099;53.588;10.176;2023-10-13T03:33:14;100567.06;;;14.01;100.00
46394;BME280;32099;53.588;10.176;2023-10-13T03:35:40;100560.31;;;14.04;100.00
46394;BME280;32099;53.588;10.176;2023-10-13T03:38:06;100564.75;;;14.05;100.00
46394;BME280;32099;53.588;10.176;2023-10-13T03:40:34;100559.91;;;14.07;100.00
46394;BME280;32099;53.588;10.176;2023-10-13T03:43:00;100566.44;;;14.06;100.00
46394;BME280;32099;53.588;10.176;2023-10-13T03:45:26;100561.59;;;14.08;100.00
46394;BME280;32099;53.588;10.176;2023-10-13T03:47:52;100553.56;;;14.13;100.00
46394;BME280;32099;53.588;10.176;2023-10-13T03:50:18;100548.09;;;14.13;100.00
46394;BME280;32099;53.588;10.176;2023-10-13T03:52:44;100553.56;;;14.13;100.00
46394;BME280;32099;53.588;10.176;2023-10-13T03:55:10;100542.41;;;14.15;100.00
46394;BME280;32099;53.588;10.176;2023-10-13T03:57:38;100538.56;;;14.16;100.00
46394;BME280;32099;53.588;10.176;2023-10-13T04:00:04;100535.41;;;14.19;100.00
46394;BME280;32099;53.588;10.176;2023-10-13T04:02:51;100531.63;;;14.20;100.00
46394;BME280;32099;53.588;10.176;2023-10-13T04:05:17;100522.97;;;14.23;100.00
46394;BME280;32099;53.588;10.176;2023-10-13T04:07:42;100523.41;;;14.27;100.00
46394;BME280;32099;53.588;10.176;2023-10-13T04:10:11;100526.34;;;14.32;100.00
46394;BME280;32099;53.588;10.176;2023-10-13T04:12:40;100526.13;;;14.33;100.00
46394;BME280;32099;53.588;10.176;2023-10-13T04:15:06;100517.03;;;14.33;100.00
46394;BME280;32099;53.588;10.176;2023-10-13T04:17:33;100514.75;;;14.37;100.00
46394;BME280;32099;53.588;10.176;2023-10-13T04:19:59;100517.66;;;14.42;100.00
46394;BME280;32099;53.588;10.176;2023-10-13T04:22:26;100515.34;;;14.45;100.00
46394;BME280;32099;53.588;10.176;2023-10-13T04:24:52;100519.97;;;14.52;100.00
46394;BME280;32099;53.588;10.176;2023-10-13T04:27:17;100503.69;;;14.57;100.00
46394;BME280;32099;53.588;10.176;2023-10-13T04:29:46;100499.91;;;14.58;100.00
46394;BME280;32099;53.588;10.176;2023-10-13T04:32:11;100491.47;;;14.59;100.00
46394;BME280;32099;53.588;10.176;2023-10-13T04:34:38;100484.69;;;14.62;100.00
46394;BME280;32099;53.588;10.176;2023-10-13T04:37:03;100490.59;;;14.65;100.00
46394;BME280;32099;53.588;10.176;2023-10-13T04:39:29;100476.25;;;14.70;100.00
46394;BME280;32099;53.588;10.176;2023-10-13T04:41:55;100475.81;;;14.73;100.00
46394;BME280;32099;53.588;10.176;2023-10-13T04:44:21;100461.44;;;14.78;100.00
46394;BME280;32099;53.588;10.176;2023-10-13T04:46:49;100466.28;;;14.83;100.00
46394;BME280;32099;53.588;10.176;2023-10-13T04:49:16;100465.63;;;14.87;100.00
46394;BME280;32099;53.588;10.176;2023-10-13T04:51:41;100461.38;;;14.91;100.00
46394;BME280;32099;53.588;10.176;2023-10-13T04:54:07;100444.69;;;14.93;100.00
46394;BME280;32099;53.588;10.176;2023-10-13T04:56:33;100450.19;;;14.93;100.00
46394;BME280;32099;53.588;10.176;2023-10-13T04:58:59;100443.41;;;14.95;100.00
46394;BME280;32099;53.588;10.176;2023-10-13T05:01:25;100440.22;;;14.99;100.00
46394;BME280;32099;53.588;10.176;2023-10-13T05:03:53;100437.28;;;15.00;100.00
46394;BME280;32099;53.588;10.176;2023-10-13T05:06:19;100434.91;;;15.04;100.00
46394;BME280;32099;53.588;10.176;2023-10-13T05:08:45;100427.91;;;15.08;100.00
46394;BME280;32099;53.588;10.176;2023-10-13T05:11:10;100419.47;;;15.09;100.00
46394;BME280;32099;53.588;10.176;2023-10-13T05:13:36;100416.28;;;15.13;100.00
46394;BME280;32099;53.588;10.176;2023-10-13T05:16:02;100411.38;;;15.15;100.00
46394;BME280;32099;53.588;10.176;2023-10-13T05:18:27;100404.22;;;15.14;100.00
46394;BME280;32099;53.588;10.176;2023-10-13T05:20:57;100399.59;;;15.14;100.00
46394;BME280;32099;53.588;10.176;2023-10-13T05:23:23;100397.47;;;15.16;100.00
46394;BME280;32099;53.588;10.176;2023-10-13T05:25:48;100389.84;;;15.18;100.00
46394;BME280;32099;53.588;10.176;2023-10-13T05:28:14;100391.06;;;15.22;100.00
46394;BME280;32099;53.588;10.176;2023-10-13T05:30:40;100392.31;;;15.26;100.00
46394;BME280;32099;53.588;10.176;2023-10-13T05:33:05;100391.88;;;15.30;100.00
46394;BME280;32099;53.588;10.176;2023-10-13T05:35:31;100389.72;;;15.32;100.00
46394;BME280;32099;53.588;10.176;2023-10-13T05:38:00;100389.91;;;15.37;100.00
46394;BME280;32099;53.588;10.176;2023-10-13T05:40:26;100386.09;;;15.38;100.00
46394;BME280;32099;53.588;10.176;2023-10-13T05:42:51;100376.56;;;15.40;100.00
46394;BME280;32099;53.588;10.176;2023-10-13T05:45:17;100372.31;;;15.45;100.00
46394;BME280;32099;53.588;10.176;2023-10-13T05:47:43;100380.94;;;15.48;100.00
46394;BME280;32099;53.588;10.176;2023-10-13T05:50:09;100374.13;;;15.51;100.00
46394;BME280;32099;53.588;10.176;2023-10-13T05:52:38;100374.75;;;15.53;100.00
46394;BME280;32099;53.588;10.176;2023-10-13T05:55:07;100381.69;;;15.55;100.00
46394;BME280;32099;53.588;10.176;2023-10-13T05:57:33;100368.81;;;15.56;100.00
46394;BME280;32099;53.588;10.176;2023-10-13T05:59:58;100369.22;;;15.60;100.00
46394;BME280;32099;53.588;10.176;2023-10-13T06:02:24;100363.03;;;15.64;100.00
46394;BME280;32099;53.588;10.176;2023-10-13T06:04:52;100357.28;;;15.66;100.00
46394;BME280;32099;53.588;10.176;2023-10-13T06:07:18;100355.78;;;15.70;100.00
46394;BME280;32099;53.588;10.176;2023-10-13T06:09:44;100364.41;;;15.73;100.00
46394;BME280;32099;53.588;10.176;2023-10-13T06:12:12;100352.13;;;15.76;100.00
46394;BME280;32099;53.588;10.176;2023-10-13T06:14:38;100363.03;;;15.83;100.00
46394;BME280;32099;53.588;10.176;2023-10-13T06:17:04;100356.06;;;15.87;100.00
46394;BME280;32099;53.588;10.176;2023-10-13T06:19:30;100358.13;;;15.92;100.00
46394;BME280;32099;53.588;10.176;2023-10-13T06:21:55;100346.06;;;15.93;100.00
46394;BME280;32099;53.588;10.176;2023-10-13T06:24:21;100350.25;;;15.95;100.00
46394;BME280;32099;53.588;10.176;2023-10-13T06:26:47;100347.91;;;15.99;100.00
46394;BME280;32099;53.588;10.176;2023-10-13T06:29:18;100349.97;;;16.03;100.00
46394;BME280;32099;53.588;10.176;2023-10-13T06:31:44;100343.16;;;16.06;100.00
46394;BME280;32099;53.588;10.176;2023-10-13T06:34:10;100332.78;;;16.08;100.00
46394;BME280;32099;53.588;10.176;2023-10-13T06:36:35;100334.84;;;16.13;100.00
46394;BME280;32099;53.588;10.176;2023-10-13T06:39:01;100333.28;;;16.17;100.00
46394;BME280;32099;53.588;10.176;2023-10-13T06:41:27;100335.59;;;16.20;100.00
46394;BME280;32099;53.588;10.176;2023-10-13T06:43:52;100330.09;;;16.20;100.00
46394;BME280;32099;53.588;10.176;2023-10-13T06:46:21;100329.88;;;16.22;100.00
46394;BME280;32099;53.588;10.176;2023-10-13T06:48:46;100328.78;;;16.23;100.00
46394;BME280;32099;53.588;10.176;2023-10-13T06:51:12;100333.63;;;16.27;100.00
46394;BME280;32099;53.588;10.176;2023-10-13T06:53:37;100322.38;;;16.29;100.00
46394;BME280;32099;53.588;10.176;2023-10-13T06:56:05;100322.38;;;16.29;100.00
46394;BME280;32099;53.588;10.176;2023-10-13T06:58:32;100315.56;;;16.31;100.00
46394;BME280;32099;53.588;10.176;2023-10-13T07:00:59;100317.00;;;16.34;100.00
46394;BME280;32099;53.588;10.176;2023-10-13T07:03:29;100312.09;;;16.36;100.00
46394;BME280;32099;53.588;10.176;2023-10-13T07:05:56;100307.66;;;16.35;100.00
46394;BME280;32099;53.588;10.176;2023-10-13T07:08:23;100305.53;;;16.37;100.00
46394;BME280;32099;53.588;10.176;2023-10-13T07:10:52;100296.22;;;16.38;100.00
46394;BME280;32099;53.588;10.176;2023-10-13T07:13:19;100296.59;;;16.42;100.00
46394;BME280;32099;53.588;10.176;2023-10-13T07:15:48;100288.31;;;16.42;100.00
46394;BME280;32099;53.588;10.176;2023-10-13T07:18:15;100292.53;;;16.44;100.00
46394;BME280;32099;53.588;10.176;2023-10-13T07:20:45;100284.66;;;16.48;100.00
46394;BME280;32099;53.588;10.176;2023-10-13T07:23:12;100284.41;;;16.49;100.00
46394;BME280;32099;53.588;10.176;2023-10-13T07:25:39;100285.84;;;16.52;100.00
46394;BME280;32099;53.588;10.176;2023-10-13T07:28:05;100275.69;;;16.53;100.00
46394;BME280;32099;53.588;10.176;2023-10-13T07:30:31;100265.31;;;16.55;100.00
46394;BME280;32099;53.588;10.176;2023-10-13T07:32:57;100264.81;;;16.58;100.00
46394;BME280;32099;53.588;10.176;2023-10-13T07:35:22;100260.78;;;16.60;100.00
46394;BME280;32099;53.588;10.176;2023-10-13T07:37:51;100260.06;;;16.65;100.00
46394;BME280;32099;53.588;10.176;2023-10-13T07:40:17;100260.06;;;16.65;100.00
46394;BME280;32099;53.588;10.176;2023-10-13T07:42:43;100243.31;;;16.66;100.00
46394;BME280;32099;53.588;10.176;2023-10-13T07:45:09;100244.97;;;16.68;100.00
46394;BME280;32099;53.588;10.176;2023-10-13T07:47:36;100234.22;;;16.66;100.00
46394;BME280;32099;53.588;10.176;2023-10-13T07:50:01;100233.38;;;16.65;100.00
46394;BME280;32099;53.588;10.176;2023-10-13T07:52:27;100215.41;;;16.63;100.00
46394;BME280;32099;53.588;10.176;2023-10-13T07:54:57;100210.16;;;16.61;100.00
46394;BME280;32099;53.588;10.176;2023-10-13T07:57:25;100203.34;;;16.64;100.00
46394;BME280;32099;53.588;10.176;2023-10-13T07:59:51;100203.94;;;16.66;100.00
46394;BME280;32099;53.588;10.176;2023-10-13T08:02:20;100195.06;;;16.64;100.00
46394;BME280;32099;53.588;10.176;2023-10-13T08:04:46;100184.88;;;16.64;100.00
46394;BME280;32099;53.588;10.176;2023-10-13T08:07:11;100182.13;;;16.64;100.00
46394;BME280;32099;53.588;10.176;2023-10-13T08:09:37;100175.34;;;16.67;100.00
46394;BME280;32099;53.588;10.176;2023-10-13T08:12:08;100180.84;;;16.67;100.00
46394;BME280;32099;53.588;10.176;2023-10-13T08:14:35;100180.84;;;16.67;100.00
46394;BME280;32099;53.588;10.176;2023-10-13T08:17:03;100177.84;;;16.69;100.00
46394;BME280;32099;53.588;10.176;2023-10-13T08:19:29;100170.06;;;16.65;100.00
46394;BME280;32099;53.588;10.176;2023-10-13T08:21:57;100164.56;;;16.65;100.00
46394;BME280;32099;53.588;10.176;2023-10-13T08:24:26;100148.03;;;16.65;100.00
46394;BME280;32099;53.588;10.176;2023-10-13T08:26:53;100144.47;;;16.65;100.00
46394;BME280;32099;53.588;10.176;2023-10-13T08:29:27;100145.53;;;16.64;100.00
46394;BME280;32099;53.588;10.176;2023-10-13T08:31:55;100134.53;;;16.64;100.00
46394;BME280;32099;53.588;10.176;2023-10-13T08:34:21;100134.28;;;16.65;100.00
46394;BME280;32099;53.588;10.176;2023-10-13T08:36:49;100134.63;;;16.69;100.00
46394;BME280;32099;53.588;10.176;2023-10-13T08:39:16;100135.47;;;16.70;100.00
46394;BME280;32099;53.588;10.176;2023-10-13T08:41:44;100126.38;;;16.69;100.00
46394;BME280;32099;53.588;10.176;2023-10-13T08:44:14;100136.81;;;16.67;100.00
46394;BME280;32099;53.588;10.176;2023-10-13T08:46:44;100132.59;;;16.64;100.00
46394;BME280;32099;53.588;10.176;2023-10-13T08:49:10;100135.84;;;16.61;100.00
46394;BME280;32099;53.588;10.176;2023-10-13T08:51:38;100132.50;;;16.59;100.00
46394;BME280;32099;53.588;10.176;2023-10-13T08:54:06;100117.88;;;16.59;100.00
46394;BME280;32099;53.588;10.176;2023-10-13T08:56:34;100121.69;;;16.58;100.00
46394;BME280;32099;53.588;10.176;2023-10-13T08:59:01;100119.44;;;16.55;100.00
46394;BME280;32099;53.588;10.176;2023-10-13T09:01:28;100123.28;;;16.54;100.00
46394;BME280;32099;53.588;10.176;2023-10-13T09:04:00;100121.94;;;16.56;100.00
46394;BME280;32099;53.588;10.176;2023-10-13T09:06:27;100117.28;;;16.57;100.00
46394;BME280;32099;53.588;10.176;2023-10-13T09:09:04;100110.69;;;16.58;100.00
46394;BME280;32099;53.588;10.176;2023-10-13T09:11:33;100122.31;;;16.60;100.00
46394;BME280;32099;53.588;10.176;2023-10-13T09:14:00;100116.59;;;16.61;100.00
46394;BME280;32099;53.588;10.176;2023-10-13T09:16:28;100109.97;;;16.62;100.00
46394;BME280;32099;53.588;10.176;2023-10-13T09:18:54;100111.91;;;16.62;100.00
46394;BME280;32099;53.588;10.176;2023-10-13T09:21:37;100128.16;;;16.63;100.00
46394;BME280;32099;53.588;10.176;2023-10-13T09:24:06;100135.59;;;16.63;100.00
46394;BME280;32099;53.588;10.176;2023-10-13T09:26:35;100119.69;;;16.65;100.00
46394;BME280;32099;53.588;10.176;2023-10-13T09:29:02;100124.47;;;16.70;100.00
46394;BME280;32099;53.588;10.176;2023-10-13T09:31:28;100117.41;;;16.74;100.00
46394;BME280;32099;53.588;10.176;2023-10-13T09:33:58;100098.00;;;16.80;100.00
46394;BME280;32099;53.588;10.176;2023-10-13T09:36:31;100107.47;;;16.85;100.00
46394;BME280;32099;53.588;10.176;2023-10-13T09:39:01;100101.25;;;16.89;100.00
46394;BME280;32099;53.588;10.176;2023-10-13T09:41:31;100101.41;;;16.94;100.00
46394;BME280;32099;53.588;10.176;2023-10-13T09:43:58;100112.50;;;17.00;100.00
46394;BME280;32099;53.588;10.176;2023-10-13T09:46:27;100098.00;;;17.04;100.00
46394;BME280;32099;53.588;10.176;2023-10-13T09:48:54;100099.22;;;17.08;100.00
46394;BME280;32099;53.588;10.176;2023-10-13T09:51:24;100106.16;;;17.11;100.00
46394;BME280;32099;53.588;10.176;2023-10-13T09:53:55;100094.31;;;17.10;100.00
46394;BME280;32099;53.588;10.176;2023-10-13T09:56:27;100097.66;;;17.13;100.00
46394;BME280;32099;53.588;10.176;2023-10-13T09:58:59;100092.72;;;17.15;100.00
46394;BME280;32099;53.588;10.176;2023-10-13T10:01:32;100084.22;;;17.16;100.00
46394;BME280;32099;53.588;10.176;2023-10-13T10:04:11;100082.56;;;17.15;100.00
46394;BME280;32099;53.588;10.176;2023-10-13T10:06:51;100079.19;;;17.13;100.00
46394;BME280;32099;53.588;10.176;2023-10-13T10:09:35;100083.88;;;17.13;100.00
46394;BME280;32099;53.588;10.176;2023-10-13T10:12:09;100063.75;;;17.12;100.00
46394;BME280;32099;53.588;10.176;2023-10-13T10:14:53;100055.28;;;17.14;100.00
46394;BME280;32099;53.588;10.176;2023-10-13T10:17:37;100051.19;;;17.16;100.00
46394;BME280;32099;53.588;10.176;2023-10-13T10:20:06;100041.31;;;17.20;100.00
46394;BME280;32099;53.588;10.176;2023-10-13T10:22:34;100034.50;;;17.23;100.00
46394;BME280;32099;53.588;10.176;2023-10-13T10:25:05;100027.94;;;17.24;100.00
46394;BME280;32099;53.588;10.176;2023-10-13T10:27:32;100038.94;;;17.24;100.00
46394;BME280;32099;53.588;10.176;2023-10-13T10:30:00;100023.84;;;17.26;100.00
46394;BME280;32099;53.588;10.176;2023-10-13T10:32:33;100019.53;;;17.31;100.00
46394;BME280;32099;53.588;10.176;2023-10-13T10:35:05;100009.91;;;17.33;100.00
46394;BME280;32099;53.588;10.176;2023-10-13T10:37:33;100012.19;;;17.36;100.00
46394;BME280;32099;53.588;10.176;2023-10-13T10:40:00;100015.28;;;17.40;100.00
46394;BME280;32099;53.588;10.176;2023-10-13T10:42:28;100008.16;;;17.44;100.00
46394;BME280;32099;53.588;10.176;2023-10-13T10:44:54;100008.78;;;17.46;100.00
46394;BME280;32099;53.588;10.176;2023-10-13T10:47:20;100007.19;;;17.50;100.00
46394;BME280;32099;53.588;10.176;2023-10-13T10:49:46;99995.31;;;17.50;100.00
46394;BME280;32099;53.588;10.176;2023-10-13T10:52:11;99988.25;;;17.54;100.00
46394;BME280;32099;53.588;10.176;2023-10-13T10:54:41;99969.63;;;17.61;100.00
46394;BME280;32099;53.588;10.176;2023-10-13T10:57:07;99960.69;;;17.71;100.00
46394;BME280;32099;53.588;10.176;2023-10-13T10:59:36;99952.75;;;17.74;100.00
46394;BME280;32099;53.588;10.176;2023-10-13T11:02:03;99943.50;;;17.81;100.00
46394;BME280;32099;53.588;10.176;2023-10-13T11:04:29;99940.81;;;17.86;100.00
46394;BME280;32099;53.588;10.176;2023-10-13T11:06:55;99946.09;;;17.87;100.00
46394;BME280;32099;53.588;10.176;2023-10-13T11:09:23;99955.78;;;17.90;100.00
46394;BME280;32099;53.588;10.176;2023-10-13T11:11:50;99939.56;;;17.94;100.00
46394;BME280;32099;53.588;10.176;2023-10-13T11:14:22;99933.63;;;18.02;100.00
46394;BME280;32099;53.588;10.176;2023-10-13T11:16:51;99929.88;;;18.08;100.00
46394;BME280;32099;53.588;10.176;2023-10-13T11:19:18;99921.16;;;18.16;100.00
46394;BME280;32099;53.588;10.176;2023-10-13T11:21:44;99912.72;;;18.23;100.00
46394;BME280;32099;53.588;10.176;2023-10-13T11:24:09;99894.31;;;18.29;100.00
46394;BME280;32099;53.588;10.176;2023-10-13T11:26:35;99896.56;;;18.32;100.00
46394;BME280;32099;53.588;10.176;2023-10-13T11:29:02;99876.41;;;18.31;100.00
46394;BME280;32099;53.588;10.176;2023-10-13T11:31:28;99880.31;;;18.35;100.00
46394;BME280;32099;53.588;10.176;2023-10-13T11:33:56;99873.75;;;18.42;100.00
46394;BME280;32099;53.588;10.176;2023-10-13T11:36:22;99868.06;;;18.48;100.00
46394;BME280;32099;53.588;10.176;2023-10-13T11:38:47;99872.56;;;18.55;100.00
46394;BME280;32099;53.588;10.176;2023-10-13T11:41:13;99855.50;;;18.58;100.00
46394;BME280;32099;53.588;10.176;2023-10-13T11:43:39;99847.75;;;18.60;100.00
46394;BME280;32099;53.588;10.176;2023-10-13T11:46:06;99852.50;;;18.64;100.00
46394;BME280;32099;53.588;10.176;2023-10-13T11:48:32;99833.25;;;18.70;100.00
46394;BME280;32099;53.588;10.176;2023-10-13T11:51:00;99835.53;;;18.78;100.00
46394;BME280;32099;53.588;10.176;2023-10-13T11:53:26;99835.09;;;18.86;100.00
46394;BME280;32099;53.588;10.176;2023-10-13T11:55:52;99832.09;;;18.93;100.00
46394;BME280;32099;53.588;10.176;2023-10-13T11:58:17;99840.47;;;18.98;100.00
46394;BME280;32099;53.588;10.176;2023-10-13T12:00:43;99835.25;;;19.02;100.00
46394;BME280;32099;53.588;10.176;2023-10-13T12:03:09;99834.22;;;19.08;100.00
46394;BME280;32099;53.588;10.176;2023-10-13T12:05:35;99812.56;;;18.94;100.00
46394;BME280;32099;53.588;10.176;2023-10-13T12:08:03;99831.28;;;19.20;100.00
46394;BME280;32099;53.588;10.176;2023-10-13T12:10:29;99837.97;;;19.24;100.00
46394;BME280;32099;53.588;10.176;2023-10-13T12:12:55;99818.91;;;19.27;100.00
46394;BME280;32099;53.588;10.176;2023-10-13T12:15:22;99812.00;;;19.30;100.00
46394;BME280;32099;53.588;10.176;2023-10-13T12:17:47;99806.78;;;19.34;100.00
46394;BME280;32099;53.588;10.176;2023-10-13T12:20:13;99808.75;;;19.38;100.00
46394;BME280;32099;53.588;10.176;2023-10-13T12:22:39;99789.97;;;19.40;100.00
46394;BME280;32099;53.588;10.176;2023-10-13T12:25:08;99787.78;;;19.42;100.00
46394;BME280;32099;53.588;10.176;2023-10-13T12:27:34;99793.63;;;19.46;100.00
46394;BME280;32099;53.588;10.176;2023-10-13T12:30:00;99796.94;;;19.48;100.00
46394;BME280;32099;53.588;10.176;2023-10-13T12:32:26;99787.28;;;19.51;100.00